sensor_id;sensor_type;location;lat;lon;timestamp;P1;durP1;ratioP1;P2;durP2;ratioP2
27728;SDS011;15126;42.186;24.340;2023-04-15T00:01:27;4.67;;;3.83;;
27728;SDS011;15126;42.186;24.340;2023-04-15T00:03:58;6.00;;;3.93;;
27728;SDS011;15126;42.186;24.340;2023-04-15T00:06:24;4.57;;;4.13;;
27728;SDS011;15126;42.186;24.340;2023-04-15T00:08:53;4.57;;;3.57;;
27728;SDS011;15126;42.186;24.340;2023-04-15T00:11:19;4.57;;;4.13;;
27728;SDS011;15126;42.186;24.340;2023-04-15T00:13:46;6.00;;;4.67;;
27728;SDS011;15126;42.186;24.340;2023-04-15T00:16:13;7.90;;;4.27;;
27728;SDS011;15126;42.186;24.340;2023-04-15T00:18:40;6.30;;;4.93;;
27728;SDS011;15126;42.186;24.340;2023-04-15T00:21:07;7.30;;;5.43;;
27728;SDS011;15126;42.186;24.340;2023-04-15T00:23:34;5.77;;;5.17;;
27728;SDS011;15126;42.186;24.340;2023-04-15T00:26:03;7.93;;;5.73;;
27728;SDS011;15126;42.186;24.340;2023-04-15T00:28:29;6.37;;;5.43;;
27728;SDS011;15126;42.186;24.340;2023-04-15T00:30:56;8.97;;;5.87;;
27728;SDS011;15126;42.186;24.340;2023-04-15T00:33:23;7.43;;;5.97;;
27728;SDS011;15126;42.186;24.340;2023-04-15T00:35:50;8.23;;;6.27;;
27728;SDS011;15126;42.186;24.340;2023-04-15T00:38:17;8.03;;;5.93;;
27728;SDS011;15126;42.186;24.340;2023-04-15T00:40:44;6.90;;;5.27;;
27728;SDS011;15126;42.186;24.340;2023-04-15T00:43:12;5.63;;;4.83;;
27728;SDS011;15126;42.186;24.340;2023-04-15T00:45:40;5.80;;;5.30;;
27728;SDS011;15126;42.186;24.340;2023-04-15T00:48:07;9.17;;;5.77;;
27728;SDS011;15126;42.186;24.340;2023-04-15T00:50:34;6.63;;;5.10;;
27728;SDS011;15126;42.186;24.340;2023-04-15T00:53:01;8.00;;;5.13;;
27728;SDS011;15126;42.186;24.340;2023-04-15T00:55:28;6.93;;;5.03;;
27728;SDS011;15126;42.186;24.340;2023-04-15T00:57:55;7.57;;;4.73;;
27728;SDS011;15126;42.186;24.340;2023-04-15T01:00:23;7.10;;;5.47;;
27728;SDS011;15126;42.186;24.340;2023-04-15T01:02:50;7.07;;;5.43;;
27728;SDS011;15126;42.186;24.340;2023-04-15T01:05:17;6.30;;;5.13;;
27728;SDS011;15126;42.186;24.340;2023-04-15T01:07:45;7.57;;;5.63;;
27728;SDS011;15126;42.186;24.340;2023-04-15T01:10:12;5.53;;;5.03;;
27728;SDS011;15126;42.186;24.340;2023-04-15T01:12:39;5.93;;;5.23;;
27728;SDS011;15126;42.186;24.340;2023-04-15T01:15:07;7.00;;;5.40;;
27728;SDS011;15126;42.186;24.340;2023-04-15T01:17:36;6.23;;;5.00;;
27728;SDS011;15126;42.186;24.340;2023-04-15T01:20:04;6.40;;;4.77;;
27728;SDS011;15126;42.186;24.340;2023-04-15T01:22:35;4.60;;;4.20;;
27728;SDS011;15126;42.186;24.340;2023-04-15T01:25:04;7.23;;;4.97;;
27728;SDS011;15126;42.186;24.340;2023-04-15T01:27:36;5.60;;;4.23;;
27728;SDS011;15126;42.186;24.340;2023-04-15T01:30:05;6.13;;;3.97;;
27728;SDS011;15126;42.186;24.340;2023-04-15T01:32:33;5.53;;;4.17;;
27728;SDS011;15126;42.186;24.340;2023-04-15T01:34:59;4.20;;;3.80;;
27728;SDS011;15126;42.186;24.340;2023-04-15T01:37:29;5.43;;;4.07;;
27728;SDS011;15126;42.186;24.340;2023-04-15T01:39:56;5.53;;;4.33;;
27728;SDS011;15126;42.186;24.340;2023-04-15T01:42:23;4.83;;;4.33;;
27728;SDS011;15126;42.186;24.340;2023-04-15T01:44:52;4.30;;;3.90;;
27728;SDS011;15126;42.186;24.340;2023-04-15T01:47:19;5.63;;;4.10;;
27728;SDS011;15126;42.186;24.340;2023-04-15T01:49:45;4.67;;;4.17;;
27728;SDS011;15126;42.186;24.340;2023-04-15T01:52:12;4.13;;;3.73;;
27728;SDS011;15126;42.186;24.340;2023-04-15T01:54:39;5.20;;;4.70;;
27728;SDS011;15126;42.186;24.340;2023-04-15T01:57:06;6.03;;;4.17;;
27728;SDS011;15126;42.186;24.340;2023-04-15T01:59:33;5.30;;;4.63;;
27728;SDS011;15126;42.186;24.340;2023-04-15T02:02:01;5.20;;;4.10;;
27728;SDS011;15126;42.186;24.340;2023-04-15T02:04:28;4.63;;;4.23;;
27728;SDS011;15126;42.186;24.340;2023-04-15T02:06:55;4.63;;;4.23;;
27728;SDS011;15126;42.186;24.340;2023-04-15T02:09:22;4.33;;;3.90;;
27728;SDS011;15126;42.186;24.340;2023-04-15T02:11:49;4.03;;;3.40;;
27728;SDS011;15126;42.186;24.340;2023-04-15T02:14:17;4.27;;;3.87;;
27728;SDS011;15126;42.186;24.340;2023-04-15T02:16:43;4.60;;;4.20;;
27728;SDS011;15126;42.186;24.340;2023-04-15T02:19:12;6.87;;;5.27;;
27728;SDS011;15126;42.186;24.340;2023-04-15T02:21:39;5.50;;;5.00;;
27728;SDS011;15126;42.186;24.340;2023-04-15T02:24:06;5.57;;;5.07;;
27728;SDS011;15126;42.186;24.340;2023-04-15T02:26:33;5.93;;;4.67;;
27728;SDS011;15126;42.186;24.340;2023-04-15T02:29:00;4.67;;;4.17;;
27728;SDS011;15126;42.186;24.340;2023-04-15T02:31:27;4.57;;;3.63;;
27728;SDS011;15126;42.186;24.340;2023-04-15T02:33:53;5.93;;;3.97;;
27728;SDS011;15126;42.186;24.340;2023-04-15T02:36:22;4.27;;;3.50;;
27728;SDS011;15126;42.186;24.340;2023-04-15T02:38:49;4.70;;;3.93;;
27728;SDS011;15126;42.186;24.340;2023-04-15T02:41:16;3.50;;;3.20;;
27728;SDS011;15126;42.186;24.340;2023-04-15T02:43:43;4.07;;;3.60;;
27728;SDS011;15126;42.186;24.340;2023-04-15T02:46:09;4.80;;;3.43;;
27728;SDS011;15126;42.186;24.340;2023-04-15T02:48:38;4.40;;;4.00;;
27728;SDS011;15126;42.186;24.340;2023-04-15T02:51:15;4.80;;;4.17;;
27728;SDS011;15126;42.186;24.340;2023-04-15T02:53:45;6.30;;;4.40;;
27728;SDS011;15126;42.186;24.340;2023-04-15T02:56:12;4.73;;;3.83;;
27728;SDS011;15126;42.186;24.340;2023-04-15T02:58:40;4.47;;;3.70;;
27728;SDS011;15126;42.186;24.340;2023-04-15T03:01:07;4.60;;;4.20;;
27728;SDS011;15126;42.186;24.340;2023-04-15T03:03:34;6.90;;;4.47;;
27728;SDS011;15126;42.186;24.340;2023-04-15T03:06:01;4.37;;;3.87;;
27728;SDS011;15126;42.186;24.340;2023-04-15T03:08:27;5.87;;;4.20;;
27728;SDS011;15126;42.186;24.340;2023-04-15T03:10:56;4.70;;;3.50;;
27728;SDS011;15126;42.186;24.340;2023-04-15T03:13:24;4.17;;;3.57;;
27728;SDS011;15126;42.186;24.340;2023-04-15T03:15:51;5.50;;;3.97;;
27728;SDS011;15126;42.186;24.340;2023-04-15T03:18:18;5.37;;;4.47;;
27728;SDS011;15126;42.186;24.340;2023-04-15T03:20:45;6.17;;;4.60;;
27728;SDS011;15126;42.186;24.340;2023-04-15T03:23:12;8.67;;;5.40;;
27728;SDS011;15126;42.186;24.340;2023-04-15T03:25:39;7.77;;;6.33;;
27728;SDS011;15126;42.186;24.340;2023-04-15T03:28:07;8.13;;;4.80;;
27728;SDS011;15126;42.186;24.340;2023-04-15T03:30:34;6.00;;;4.97;;
27728;SDS011;15126;42.186;24.340;2023-04-15T03:33:01;5.10;;;4.30;;
27728;SDS011;15126;42.186;24.340;2023-04-15T03:35:27;6.00;;;4.93;;
27728;SDS011;15126;42.186;24.340;2023-04-15T03:37:55;5.93;;;4.10;;
27728;SDS011;15126;42.186;24.340;2023-04-15T03:40:21;10.17;;;7.87;;
27728;SDS011;15126;42.186;24.340;2023-04-15T03:42:48;8.00;;;7.17;;
27728;SDS011;15126;42.186;24.340;2023-04-15T03:45:16;12.93;;;8.63;;
27728;SDS011;15126;42.186;24.340;2023-04-15T03:47:43;4.93;;;4.43;;
27728;SDS011;15126;42.186;24.340;2023-04-15T03:50:10;6.33;;;4.73;;
27728;SDS011;15126;42.186;24.340;2023-04-15T03:52:37;5.20;;;3.90;;
27728;SDS011;15126;42.186;24.340;2023-04-15T03:55:04;6.47;;;3.90;;
27728;SDS011;15126;42.186;24.340;2023-04-15T03:57:31;6.97;;;4.23;;
27728;SDS011;15126;42.186;24.340;2023-04-15T04:00:02;5.27;;;4.30;;
27728;SDS011;15126;42.186;24.340;2023-04-15T04:02:32;6.33;;;5.10;;
27728;SDS011;15126;42.186;24.340;2023-04-15T04:04:59;9.30;;;7.70;;
27728;SDS011;15126;42.186;24.340;2023-04-15T04:07:26;8.53;;;4.27;;
27728;SDS011;15126;42.186;24.340;2023-04-15T04:09:53;7.80;;;6.90;;
27728;SDS011;15126;42.186;24.340;2023-04-15T04:12:19;10.10;;;6.03;;
27728;SDS011;15126;42.186;24.340;2023-04-15T04:14:46;8.10;;;5.20;;
27728;SDS011;15126;42.186;24.340;2023-04-15T04:17:13;11.87;;;4.10;;
27728;SDS011;15126;42.186;24.340;2023-04-15T04:19:41;10.00;;;5.43;;
27728;SDS011;15126;42.186;24.340;2023-04-15T04:22:10;5.50;;;4.23;;
27728;SDS011;15126;42.186;24.340;2023-04-15T04:24:37;4.40;;;4.00;;
27728;SDS011;15126;42.186;24.340;2023-04-15T04:27:04;6.90;;;3.83;;
27728;SDS011;15126;42.186;24.340;2023-04-15T04:29:31;4.97;;;4.10;;
27728;SDS011;15126;42.186;24.340;2023-04-15T04:31:58;5.13;;;4.33;;
27728;SDS011;15126;42.186;24.340;2023-04-15T04:34:24;9.23;;;4.17;;
27728;SDS011;15126;42.186;24.340;2023-04-15T04:36:53;6.80;;;4.53;;
27728;SDS011;15126;42.186;24.340;2023-04-15T04:39:19;5.80;;;4.97;;
27728;SDS011;15126;42.186;24.340;2023-04-15T04:41:46;8.87;;;4.60;;
27728;SDS011;15126;42.186;24.340;2023-04-15T04:44:13;9.83;;;5.23;;
27728;SDS011;15126;42.186;24.340;2023-04-15T04:46:40;8.23;;;4.53;;
27728;SDS011;15126;42.186;24.340;2023-04-15T04:49:06;9.00;;;6.70;;
27728;SDS011;15126;42.186;24.340;2023-04-15T04:51:33;5.13;;;4.30;;
27728;SDS011;15126;42.186;24.340;2023-04-15T04:54:02;6.00;;;3.97;;
27728;SDS011;15126;42.186;24.340;2023-04-15T04:56:29;5.00;;;4.53;;
27728;SDS011;15126;42.186;24.340;2023-04-15T04:58:56;9.93;;;6.77;;
27728;SDS011;15126;42.186;24.340;2023-04-15T05:01:22;7.97;;;6.57;;
27728;SDS011;15126;42.186;24.340;2023-04-15T05:03:50;7.40;;;6.70;;
27728;SDS011;15126;42.186;24.340;2023-04-15T05:06:18;5.70;;;5.07;;
27728;SDS011;15126;42.186;24.340;2023-04-15T05:08:45;11.47;;;6.20;;
27728;SDS011;15126;42.186;24.340;2023-04-15T05:11:13;12.43;;;5.87;;
27728;SDS011;15126;42.186;24.340;2023-04-15T05:13:40;10.10;;;4.77;;
27728;SDS011;15126;42.186;24.340;2023-04-15T05:16:07;5.17;;;4.67;;
27728;SDS011;15126;42.186;24.340;2023-04-15T05:18:33;6.87;;;5.03;;
27728;SDS011;15126;42.186;24.340;2023-04-15T05:21:00;5.77;;;4.50;;
27728;SDS011;15126;42.186;24.340;2023-04-15T05:23:27;7.33;;;5.93;;
27728;SDS011;15126;42.186;24.340;2023-04-15T05:25:54;6.90;;;5.83;;
27728;SDS011;15126;42.186;24.340;2023-04-15T05:28:23;10.10;;;5.53;;
27728;SDS011;15126;42.186;24.340;2023-04-15T05:30:50;10.30;;;6.50;;
27728;SDS011;15126;42.186;24.340;2023-04-15T05:33:17;7.93;;;5.90;;
27728;SDS011;15126;42.186;24.340;2023-04-15T05:35:44;11.33;;;6.73;;
27728;SDS011;15126;42.186;24.340;2023-04-15T05:38:11;7.00;;;6.33;;
27728;SDS011;15126;42.186;24.340;2023-04-15T05:40:38;10.23;;;8.37;;
27728;SDS011;15126;42.186;24.340;2023-04-15T05:43:05;14.97;;;8.37;;
27728;SDS011;15126;42.186;24.340;2023-04-15T05:45:33;12.37;;;9.30;;
27728;SDS011;15126;42.186;24.340;2023-04-15T05:48:00;11.50;;;9.03;;
27728;SDS011;15126;42.186;24.340;2023-04-15T05:50:27;12.13;;;8.63;;
27728;SDS011;15126;42.186;24.340;2023-04-15T05:52:54;9.13;;;8.20;;
27728;SDS011;15126;42.186;24.340;2023-04-15T05:55:21;14.60;;;9.70;;
27728;SDS011;15126;42.186;24.340;2023-04-15T05:57:48;10.00;;;6.67;;
27728;SDS011;15126;42.186;24.340;2023-04-15T06:00:15;9.57;;;6.93;;
27728;SDS011;15126;42.186;24.340;2023-04-15T06:02:43;10.60;;;6.87;;
27728;SDS011;15126;42.186;24.340;2023-04-15T06:05:11;8.73;;;6.63;;
27728;SDS011;15126;42.186;24.340;2023-04-15T06:07:38;7.37;;;6.27;;
27728;SDS011;15126;42.186;24.340;2023-04-15T06:10:05;12.23;;;5.83;;
27728;SDS011;15126;42.186;24.340;2023-04-15T06:12:33;8.57;;;6.10;;
27728;SDS011;15126;42.186;24.340;2023-04-15T06:15:00;5.73;;;5.23;;
27728;SDS011;15126;42.186;24.340;2023-04-15T06:17:30;7.43;;;5.87;;
27728;SDS011;15126;42.186;24.340;2023-04-15T06:19:58;6.73;;;5.77;;
27728;SDS011;15126;42.186;24.340;2023-04-15T06:22:25;7.57;;;5.30;;
27728;SDS011;15126;42.186;24.340;2023-04-15T06:24:52;6.07;;;5.20;;
27728;SDS011;15126;42.186;24.340;2023-04-15T06:27:19;8.73;;;6.63;;
27728;SDS011;15126;42.186;24.340;2023-04-15T06:29:47;12.57;;;7.00;;
27728;SDS011;15126;42.186;24.340;2023-04-15T06:32:13;9.57;;;5.20;;
27728;SDS011;15126;42.186;24.340;2023-04-15T06:34:40;6.63;;;5.37;;
27728;SDS011;15126;42.186;24.340;2023-04-15T06:37:08;6.60;;;5.17;;
27728;SDS011;15126;42.186;24.340;2023-04-15T06:39:40;5.97;;;4.97;;
27728;SDS011;15126;42.186;24.340;2023-04-15T06:42:06;10.53;;;5.50;;
27728;SDS011;15126;42.186;24.340;2023-04-15T06:44:34;9.60;;;6.03;;
27728;SDS011;15126;42.186;24.340;2023-04-15T06:47:01;7.40;;;5.60;;
27728;SDS011;15126;42.186;24.340;2023-04-15T06:49:28;8.40;;;6.50;;
27728;SDS011;15126;42.186;24.340;2023-04-15T06:51:54;12.67;;;6.40;;
27728;SDS011;15126;42.186;24.340;2023-04-15T06:54:22;13.80;;;5.97;;
27728;SDS011;15126;42.186;24.340;2023-04-15T06:56:50;10.17;;;6.50;;
27728;SDS011;15126;42.186;24.340;2023-04-15T06:59:17;11.37;;;6.37;;
27728;SDS011;15126;42.186;24.340;2023-04-15T07:01:44;8.57;;;6.27;;
27728;SDS011;15126;42.186;24.340;2023-04-15T07:04:11;8.17;;;6.77;;
27728;SDS011;15126;42.186;24.340;2023-04-15T07:06:37;8.67;;;6.90;;
27728;SDS011;15126;42.186;24.340;2023-04-15T07:09:05;13.27;;;7.07;;
27728;SDS011;15126;42.186;24.340;2023-04-15T07:11:34;11.67;;;7.03;;
27728;SDS011;15126;42.186;24.340;2023-04-15T07:14:00;10.43;;;6.13;;
27728;SDS011;15126;42.186;24.340;2023-04-15T07:16:29;10.43;;;7.10;;
27728;SDS011;15126;42.186;24.340;2023-04-15T07:18:56;9.10;;;7.20;;
27728;SDS011;15126;42.186;24.340;2023-04-15T07:21:23;10.80;;;7.37;;
27728;SDS011;15126;42.186;24.340;2023-04-15T07:23:51;12.80;;;10.07;;
27728;SDS011;15126;42.186;24.340;2023-04-15T07:26:18;10.73;;;7.77;;
27728;SDS011;15126;42.186;24.340;2023-04-15T07:28:46;9.77;;;7.07;;
27728;SDS011;15126;42.186;24.340;2023-04-15T07:31:13;12.43;;;8.50;;
27728;SDS011;15126;42.186;24.340;2023-04-15T07:33:40;11.93;;;7.93;;
27728;SDS011;15126;42.186;24.340;2023-04-15T07:36:07;12.30;;;8.00;;
27728;SDS011;15126;42.186;24.340;2023-04-15T07:38:34;12.70;;;8.67;;
27728;SDS011;15126;42.186;24.340;2023-04-15T07:41:01;13.60;;;8.63;;
27728;SDS011;15126;42.186;24.340;2023-04-15T07:43:30;11.23;;;8.40;;
27728;SDS011;15126;42.186;24.340;2023-04-15T07:45:59;10.70;;;9.17;;
27728;SDS011;15126;42.186;24.340;2023-04-15T07:48:25;10.43;;;9.13;;
27728;SDS011;15126;42.186;24.340;2023-04-15T07:50:52;10.90;;;9.43;;
27728;SDS011;15126;42.186;24.340;2023-04-15T07:53:19;10.97;;;9.57;;
27728;SDS011;15126;42.186;24.340;2023-04-15T07:55:46;14.73;;;11.87;;
27728;SDS011;15126;42.186;24.340;2023-04-15T07:58:12;14.73;;;12.97;;
27728;SDS011;15126;42.186;24.340;2023-04-15T08:00:39;14.33;;;10.77;;
27728;SDS011;15126;42.186;24.340;2023-04-15T08:03:07;11.50;;;10.30;;
27728;SDS011;15126;42.186;24.340;2023-04-15T08:05:34;10.40;;;9.30;;
27728;SDS011;15126;42.186;24.340;2023-04-15T08:08:01;11.13;;;9.97;;
27728;SDS011;15126;42.186;24.340;2023-04-15T08:10:31;9.80;;;8.80;;
27728;SDS011;15126;42.186;24.340;2023-04-15T08:12:58;9.13;;;7.07;;
27728;SDS011;15126;42.186;24.340;2023-04-15T08:15:25;11.50;;;9.13;;
27728;SDS011;15126;42.186;24.340;2023-04-15T08:17:52;19.37;;;14.23;;
27728;SDS011;15126;42.186;24.340;2023-04-15T08:20:20;15.97;;;10.73;;
27728;SDS011;15126;42.186;24.340;2023-04-15T08:22:47;10.07;;;7.93;;
27728;SDS011;15126;42.186;24.340;2023-04-15T08:25:16;14.90;;;10.30;;
27728;SDS011;15126;42.186;24.340;2023-04-15T08:27:43;10.83;;;9.40;;
27728;SDS011;15126;42.186;24.340;2023-04-15T08:30:10;14.30;;;10.20;;
27728;SDS011;15126;42.186;24.340;2023-04-15T08:32:38;11.73;;;10.00;;
27728;SDS011;15126;42.186;24.340;2023-04-15T08:35:05;11.50;;;10.30;;
27728;SDS011;15126;42.186;24.340;2023-04-15T08:37:33;12.53;;;10.10;;
27728;SDS011;15126;42.186;24.340;2023-04-15T08:40:00;11.50;;;10.00;;
27728;SDS011;15126;42.186;24.340;2023-04-15T08:42:30;12.03;;;10.83;;
27728;SDS011;15126;42.186;24.340;2023-04-15T08:45:03;11.23;;;9.30;;
27728;SDS011;15126;42.186;24.340;2023-04-15T08:47:30;13.17;;;11.43;;
27728;SDS011;15126;42.186;24.340;2023-04-15T08:49:59;10.53;;;9.43;;
27728;SDS011;15126;42.186;24.340;2023-04-15T08:52:29;12.90;;;10.47;;
27728;SDS011;15126;42.186;24.340;2023-04-15T08:54:57;11.30;;;9.97;;
27728;SDS011;15126;42.186;24.340;2023-04-15T08:57:30;8.73;;;7.80;;
27728;SDS011;15126;42.186;24.340;2023-04-15T08:59:57;16.30;;;8.83;;
27728;SDS011;15126;42.186;24.340;2023-04-15T09:02:24;10.63;;;9.63;;
27728;SDS011;15126;42.186;24.340;2023-04-15T09:04:52;10.23;;;8.63;;
27728;SDS011;15126;42.186;24.340;2023-04-15T09:07:19;12.87;;;9.23;;
27728;SDS011;15126;42.186;24.340;2023-04-15T09:09:46;10.50;;;9.33;;
27728;SDS011;15126;42.186;24.340;2023-04-15T09:12:15;9.67;;;8.87;;
27728;SDS011;15126;42.186;24.340;2023-04-15T09:14:44;10.63;;;9.50;;
27728;SDS011;15126;42.186;24.340;2023-04-15T09:17:11;11.03;;;8.47;;
27728;SDS011;15126;42.186;24.340;2023-04-15T09:19:38;8.67;;;7.40;;
27728;SDS011;15126;42.186;24.340;2023-04-15T09:22:04;12.20;;;9.90;;
27728;SDS011;15126;42.186;24.340;2023-04-15T09:24:35;22.07;;;16.70;;
27728;SDS011;15126;42.186;24.340;2023-04-15T09:27:03;8.60;;;7.47;;
27728;SDS011;15126;42.186;24.340;2023-04-15T09:29:32;10.43;;;6.77;;
27728;SDS011;15126;42.186;24.340;2023-04-15T09:32:09;7.17;;;6.17;;
27728;SDS011;15126;42.186;24.340;2023-04-15T09:34:37;10.33;;;6.70;;
27728;SDS011;15126;42.186;24.340;2023-04-15T09:37:03;8.17;;;6.07;;
27728;SDS011;15126;42.186;24.340;2023-04-15T09:42:14;5.73;;;5.13;;
27728;SDS011;15126;42.186;24.340;2023-04-15T09:44:43;8.23;;;5.10;;
27728;SDS011;15126;42.186;24.340;2023-04-15T09:47:12;5.33;;;4.83;;
27728;SDS011;15126;42.186;24.340;2023-04-15T09:49:54;7.57;;;4.43;;
27728;SDS011;15126;42.186;24.340;2023-04-15T09:52:22;22.77;;;18.10;;
27728;SDS011;15126;42.186;24.340;2023-04-15T09:54:50;8.47;;;5.47;;
27728;SDS011;15126;42.186;24.340;2023-04-15T09:57:18;15.00;;;9.00;;
27728;SDS011;15126;42.186;24.340;2023-04-15T09:59:47;6.87;;;4.40;;
27728;SDS011;15126;42.186;24.340;2023-04-15T10:02:14;5.30;;;4.43;;
27728;SDS011;15126;42.186;24.340;2023-04-15T10:04:43;5.90;;;3.93;;
27728;SDS011;15126;42.186;24.340;2023-04-15T10:07:12;3.63;;;3.33;;
27728;SDS011;15126;42.186;24.340;2023-04-15T10:09:42;8.50;;;3.37;;
27728;SDS011;15126;42.186;24.340;2023-04-15T10:12:11;8.37;;;4.50;;
27728;SDS011;15126;42.186;24.340;2023-04-15T10:14:38;5.40;;;4.20;;
27728;SDS011;15126;42.186;24.340;2023-04-15T10:17:08;6.73;;;4.37;;
27728;SDS011;15126;42.186;24.340;2023-04-15T10:19:37;6.20;;;3.67;;
27728;SDS011;15126;42.186;24.340;2023-04-15T10:22:04;9.00;;;4.07;;
27728;SDS011;15126;42.186;24.340;2023-04-15T10:24:31;5.27;;;3.20;;
27728;SDS011;15126;42.186;24.340;2023-04-15T10:26:59;6.60;;;3.43;;
27728;SDS011;15126;42.186;24.340;2023-04-15T10:29:26;5.27;;;4.70;;
27728;SDS011;15126;42.186;24.340;2023-04-15T10:31:53;5.53;;;3.77;;
27728;SDS011;15126;42.186;24.340;2023-04-15T10:34:22;6.60;;;4.07;;
27728;SDS011;15126;42.186;24.340;2023-04-15T10:36:50;5.17;;;3.23;;
27728;SDS011;15126;42.186;24.340;2023-04-15T10:42:09;4.63;;;3.70;;
27728;SDS011;15126;42.186;24.340;2023-04-15T10:44:38;8.53;;;4.10;;
27728;SDS011;15126;42.186;24.340;2023-04-15T10:47:10;8.10;;;6.87;;
27728;SDS011;15126;42.186;24.340;2023-04-15T10:49:46;5.57;;;3.93;;
27728;SDS011;15126;42.186;24.340;2023-04-15T10:52:14;5.77;;;3.93;;
27728;SDS011;15126;42.186;24.340;2023-04-15T10:54:42;6.00;;;3.73;;
27728;SDS011;15126;42.186;24.340;2023-04-15T10:57:13;4.30;;;3.53;;
27728;SDS011;15126;42.186;24.340;2023-04-15T11:02:43;5.93;;;4.30;;
27728;SDS011;15126;42.186;24.340;2023-04-15T11:05:13;5.03;;;3.53;;
27728;SDS011;15126;42.186;24.340;2023-04-15T11:07:50;4.87;;;3.90;;
27728;SDS011;15126;42.186;24.340;2023-04-15T11:13:18;5.93;;;3.20;;
27728;SDS011;15126;42.186;24.340;2023-04-15T11:15:53;4.10;;;3.20;;
27728;SDS011;15126;42.186;24.340;2023-04-15T11:18:23;5.50;;;2.83;;
27728;SDS011;15126;42.186;24.340;2023-04-15T11:20:54;7.80;;;3.30;;
27728;SDS011;15126;42.186;24.340;2023-04-15T11:23:26;6.70;;;4.00;;
27728;SDS011;15126;42.186;24.340;2023-04-15T11:25:54;7.80;;;3.60;;
27728;SDS011;15126;42.186;24.340;2023-04-15T11:28:23;5.47;;;3.20;;
27728;SDS011;15126;42.186;24.340;2023-04-15T11:30:51;6.00;;;3.17;;
27728;SDS011;15126;42.186;24.340;2023-04-15T11:33:19;5.83;;;3.93;;
27728;SDS011;15126;42.186;24.340;2023-04-15T11:35:46;5.33;;;2.87;;
27728;SDS011;15126;42.186;24.340;2023-04-15T11:38:15;5.77;;;3.33;;
27728;SDS011;15126;42.186;24.340;2023-04-15T11:40:42;4.40;;;3.30;;
27728;SDS011;15126;42.186;24.340;2023-04-15T11:43:10;8.57;;;3.97;;
27728;SDS011;15126;42.186;24.340;2023-04-15T11:45:47;3.63;;;3.20;;
27728;SDS011;15126;42.186;24.340;2023-04-15T11:48:16;7.27;;;3.57;;
27728;SDS011;15126;42.186;24.340;2023-04-15T11:50:43;4.60;;;3.50;;
27728;SDS011;15126;42.186;24.340;2023-04-15T11:53:11;4.87;;;3.60;;
27728;SDS011;15126;42.186;24.340;2023-04-15T11:55:44;7.50;;;3.30;;
27728;SDS011;15126;42.186;24.340;2023-04-15T11:58:12;5.07;;;2.83;;
27728;SDS011;15126;42.186;24.340;2023-04-15T12:00:44;8.00;;;3.20;;
27728;SDS011;15126;42.186;24.340;2023-04-15T12:03:13;3.73;;;2.87;;
27728;SDS011;15126;42.186;24.340;2023-04-15T12:08:51;4.37;;;2.60;;
27728;SDS011;15126;42.186;24.340;2023-04-15T12:11:28;4.93;;;3.00;;
27728;SDS011;15126;42.186;24.340;2023-04-15T12:13:57;4.77;;;3.27;;
27728;SDS011;15126;42.186;24.340;2023-04-15T12:16:26;3.20;;;2.17;;
27728;SDS011;15126;42.186;24.340;2023-04-15T12:18:54;5.80;;;2.93;;
27728;SDS011;15126;42.186;24.340;2023-04-15T12:21:24;6.50;;;2.00;;
27728;SDS011;15126;42.186;24.340;2023-04-15T12:23:53;4.67;;;2.90;;
27728;SDS011;15126;42.186;24.340;2023-04-15T12:26:25;4.33;;;2.10;;
27728;SDS011;15126;42.186;24.340;2023-04-15T12:28:54;4.50;;;2.73;;
27728;SDS011;15126;42.186;24.340;2023-04-15T12:31:21;3.57;;;2.57;;
27728;SDS011;15126;42.186;24.340;2023-04-15T12:33:49;3.03;;;2.37;;
27728;SDS011;15126;42.186;24.340;2023-04-15T12:36:16;6.73;;;3.27;;
27728;SDS011;15126;42.186;24.340;2023-04-15T12:38:42;3.13;;;2.30;;
27728;SDS011;15126;42.186;24.340;2023-04-15T12:41:09;2.97;;;2.10;;
27728;SDS011;15126;42.186;24.340;2023-04-15T12:43:36;3.97;;;2.57;;
27728;SDS011;15126;42.186;24.340;2023-04-15T12:46:04;5.53;;;2.30;;
27728;SDS011;15126;42.186;24.340;2023-04-15T12:48:32;2.53;;;2.10;;
27728;SDS011;15126;42.186;24.340;2023-04-15T12:50:59;4.13;;;2.33;;
27728;SDS011;15126;42.186;24.340;2023-04-15T12:53:26;5.13;;;2.93;;
27728;SDS011;15126;42.186;24.340;2023-04-15T12:55:53;3.47;;;2.47;;
27728;SDS011;15126;42.186;24.340;2023-04-15T12:58:20;4.60;;;3.37;;
27728;SDS011;15126;42.186;24.340;2023-04-15T13:00:47;7.70;;;3.63;;
27728;SDS011;15126;42.186;24.340;2023-04-15T13:03:15;4.33;;;3.73;;
27728;SDS011;15126;42.186;24.340;2023-04-15T13:05:42;4.83;;;4.33;;
27728;SDS011;15126;42.186;24.340;2023-04-15T13:08:09;4.27;;;3.50;;
27728;SDS011;15126;42.186;24.340;2023-04-15T13:10:35;6.70;;;4.53;;
27728;SDS011;15126;42.186;24.340;2023-04-15T13:13:03;6.07;;;4.60;;
27728;SDS011;15126;42.186;24.340;2023-04-15T13:15:30;5.73;;;4.97;;
27728;SDS011;15126;42.186;24.340;2023-04-15T13:17:57;6.47;;;5.87;;
27728;SDS011;15126;42.186;24.340;2023-04-15T13:20:25;6.23;;;5.63;;
27728;SDS011;15126;42.186;24.340;2023-04-15T13:22:53;8.13;;;5.37;;
27728;SDS011;15126;42.186;24.340;2023-04-15T13:25:20;5.20;;;4.47;;
27728;SDS011;15126;42.186;24.340;2023-04-15T13:27:46;6.37;;;4.57;;
27728;SDS011;15126;42.186;24.340;2023-04-15T13:30:13;7.57;;;4.93;;
27728;SDS011;15126;42.186;24.340;2023-04-15T13:32:40;6.63;;;4.63;;
27728;SDS011;15126;42.186;24.340;2023-04-15T13:35:07;8.30;;;5.73;;
27728;SDS011;15126;42.186;24.340;2023-04-15T13:37:35;5.77;;;5.10;;
27728;SDS011;15126;42.186;24.340;2023-04-15T13:40:03;10.97;;;4.70;;
27728;SDS011;15126;42.186;24.340;2023-04-15T13:42:32;5.13;;;4.63;;
27728;SDS011;15126;42.186;24.340;2023-04-15T13:44:58;6.33;;;4.40;;
27728;SDS011;15126;42.186;24.340;2023-04-15T13:47:25;9.97;;;4.17;;
27728;SDS011;15126;42.186;24.340;2023-04-15T13:49:52;8.23;;;6.10;;
27728;SDS011;15126;42.186;24.340;2023-04-15T13:52:20;4.57;;;4.17;;
27728;SDS011;15126;42.186;24.340;2023-04-15T13:54:49;6.80;;;5.07;;
27728;SDS011;15126;42.186;24.340;2023-04-15T13:57:16;5.67;;;4.50;;
27728;SDS011;15126;42.186;24.340;2023-04-15T13:59:42;4.90;;;4.40;;
27728;SDS011;15126;42.186;24.340;2023-04-15T14:02:09;6.93;;;4.73;;
27728;SDS011;15126;42.186;24.340;2023-04-15T14:04:36;6.53;;;4.47;;
27728;SDS011;15126;42.186;24.340;2023-04-15T14:07:03;5.00;;;3.93;;
27728;SDS011;15126;42.186;24.340;2023-04-15T14:09:30;6.93;;;4.30;;
27728;SDS011;15126;42.186;24.340;2023-04-15T14:11:58;6.53;;;3.83;;
27728;SDS011;15126;42.186;24.340;2023-04-15T14:14:26;6.90;;;4.77;;
27728;SDS011;15126;42.186;24.340;2023-04-15T14:16:53;5.40;;;4.53;;
27728;SDS011;15126;42.186;24.340;2023-04-15T14:19:20;8.80;;;6.60;;
27728;SDS011;15126;42.186;24.340;2023-04-15T14:21:47;5.17;;;3.60;;
27728;SDS011;15126;42.186;24.340;2023-04-15T14:24:14;8.87;;;6.80;;
27728;SDS011;15126;42.186;24.340;2023-04-15T14:26:41;9.80;;;7.57;;
27728;SDS011;15126;42.186;24.340;2023-04-15T14:29:10;5.50;;;3.47;;
27728;SDS011;15126;42.186;24.340;2023-04-15T14:31:37;7.90;;;4.37;;
27728;SDS011;15126;42.186;24.340;2023-04-15T14:34:03;4.83;;;3.27;;
27728;SDS011;15126;42.186;24.340;2023-04-15T14:36:30;7.03;;;4.90;;
27728;SDS011;15126;42.186;24.340;2023-04-15T14:38:57;5.63;;;3.53;;
27728;SDS011;15126;42.186;24.340;2023-04-15T14:41:24;5.37;;;4.60;;
27728;SDS011;15126;42.186;24.340;2023-04-15T14:43:51;17.07;;;11.03;;
27728;SDS011;15126;42.186;24.340;2023-04-15T14:46:19;9.70;;;6.27;;
27728;SDS011;15126;42.186;24.340;2023-04-15T14:48:46;14.20;;;9.93;;